Terminal Aerodrome Forecast
Issued by NWS Louisville, KY

Home | Current Version | Previous Version | Text Only | Print | Product List | Glossary On
Versions: 1 2 3 4 5 6 7 8 9 10 11 12
000
FTUS43 KLMK 041728
TAFBWG
TAF
KBWG 041728Z 0418/0518 26008KT P6SM FEW040 SCT250
     FM042300 VRB05KT P6SM SCT040 BKN250
     FM050400 VRB03KT 6SM BR BKN040 BKN200
      TEMPO 0508/0512 4SM -SHRA BR
     FM051300 VRB03KT P6SM SCT050 BKN180=

USA.gov is the U.S. government's official web portal to all federal, state and local government web resources and services.